Login to view products. 
Wednesday, August 23, 2017 (17:36 UTC)
Ras Al Khaimah International Airport
ICAO Code: OMRK
IATA Code: RKT
  • METAR OMRK 231700Z 14008KT CAVOK 35/19 Q1001 A2957=
  • TAF OMRK 231654Z 2318/2500 12008KT CAVOK BECMG 2408/2410 35012KT BECMG 2415/2417 VRB02KT=